createdAt,value
2022-08-28T00:02:07.051Z,48.92
2022-08-28T00:04:35.849Z,48.94
2022-08-28T00:07:05.249Z,48.97
2022-08-28T00:09:33.258Z,48.70
2022-08-28T00:12:01.076Z,49.03
2022-08-28T00:14:29.123Z,49.12
2022-08-28T00:16:56.796Z,49.02
2022-08-28T00:19:24.965Z,49.12
2022-08-28T00:21:52.975Z,48.98
2022-08-28T00:24:22.093Z,49.08
2022-08-28T00:27:07.381Z,49.02
2022-08-28T00:29:35.058Z,49.01
2022-08-28T00:32:03.530Z,49.22
2022-08-28T00:34:33.798Z,49.11
2022-08-28T00:37:01.975Z,49.00
2022-08-28T00:39:31.228Z,49.22
2022-08-28T00:41:59.296Z,49.05
2022-08-28T00:44:28.771Z,49.04
2022-08-28T00:46:58.997Z,49.17
2022-08-28T00:49:30.663Z,49.18
2022-08-28T00:52:12.714Z,49.08
2022-08-28T00:54:56.859Z,49.06
2022-08-28T00:57:29.853Z,49.23
2022-08-28T00:59:57.622Z,49.15
2022-08-28T01:02:26.625Z,49.10
2022-08-28T01:04:55.262Z,49.31
2022-08-28T01:07:23.287Z,49.27
2022-08-28T01:09:55.701Z,49.14
2022-08-28T01:12:25.525Z,49.17
2022-08-28T01:14:59.984Z,49.34
2022-08-28T01:17:31.204Z,49.27
2022-08-28T01:20:03.123Z,49.19
2022-08-28T01:22:37.894Z,49.38
2022-08-28T01:25:11.425Z,49.30
2022-08-28T01:27:41.902Z,49.46
2022-08-28T01:30:11.098Z,49.37
2022-08-28T01:32:41.850Z,49.48
2022-08-28T01:35:14.017Z,49.47
2022-08-28T01:37:42.170Z,49.50
2022-08-28T01:40:14.713Z,49.45
2022-08-28T01:42:45.083Z,49.55
2022-08-28T01:45:16.538Z,49.61
2022-08-28T01:47:46.074Z,49.44
2022-08-28T01:50:17.505Z,49.75
2022-08-28T01:52:46.242Z,49.74
2022-08-28T01:55:15.329Z,49.70
2022-08-28T01:57:50.603Z,49.64
2022-08-28T02:00:19.587Z,49.84
2022-08-28T02:02:48.317Z,49.78
2022-08-28T02:05:16.266Z,49.70
2022-08-28T02:07:44.059Z,49.77
2022-08-28T02:10:12.074Z,49.96
2022-08-28T02:12:41.286Z,49.71
2022-08-28T02:15:09.830Z,49.81
2022-08-28T02:17:37.519Z,49.90
2022-08-28T02:20:06.182Z,49.81
2022-08-28T02:22:34.370Z,49.92
2022-08-28T02:25:02.090Z,49.96
2022-08-28T02:27:29.807Z,49.93
2022-08-28T02:29:59.593Z,50.13
2022-08-28T02:32:27.685Z,50.04
2022-08-28T02:34:55.783Z,49.94
2022-08-28T02:37:24.519Z,50.17
2022-08-28T02:39:55.511Z,50.07
2022-08-28T02:42:23.258Z,50.15
2022-08-28T02:44:51.002Z,50.19
2022-08-28T02:47:20.212Z,49.96
2022-08-28T02:49:48.170Z,50.07
2022-08-28T02:52:16.044Z,50.03
2022-08-28T02:54:43.962Z,50.22
2022-08-28T02:57:11.630Z,50.15
2022-08-28T02:59:39.591Z,50.18
2022-08-28T03:02:08.159Z,50.25
2022-08-28T03:04:38.919Z,50.06
2022-08-28T03:07:09.235Z,50.17
2022-08-28T03:09:40.194Z,50.18
2022-08-28T03:12:08.470Z,50.21
2022-08-28T03:14:36.125Z,50.14
2022-08-28T03:17:04.106Z,50.15
2022-08-28T03:19:32.621Z,50.26
2022-08-28T03:22:01.689Z,50.40
2022-08-28T03:24:28.393Z,50.41
2022-08-28T03:26:56.086Z,50.48
2022-08-28T03:29:23.764Z,50.47
2022-08-28T03:31:51.447Z,50.35
2022-08-28T03:34:19.178Z,50.43
2022-08-28T03:36:46.843Z,50.43
2022-08-28T03:39:15.856Z,50.49
2022-08-28T03:41:43.575Z,50.56
2022-08-28T03:44:11.270Z,50.56
2022-08-28T03:46:40.037Z,50.40
2022-08-28T03:49:07.708Z,50.58
2022-08-28T03:51:36.179Z,50.67
2022-08-28T03:54:05.031Z,50.49
2022-08-28T03:56:34.342Z,50.49
2022-08-28T03:59:05.156Z,50.69
2022-08-28T04:01:34.251Z,50.45
2022-08-28T04:04:02.101Z,50.73
2022-08-28T04:06:30.081Z,50.66
2022-08-28T04:08:59.943Z,50.65
2022-08-28T04:11:28.258Z,50.70
2022-08-28T04:13:57.946Z,50.75
2022-08-28T04:16:25.693Z,50.65
2022-08-28T04:18:53.385Z,50.79
2022-08-28T04:21:23.479Z,50.76
2022-08-28T04:23:51.908Z,50.79
2022-08-28T04:26:22.241Z,50.73
2022-08-28T04:28:52.644Z,51.10
2022-08-28T04:31:32.027Z,50.80
2022-08-28T04:34:01.394Z,50.83
2022-08-28T04:36:29.165Z,50.90
2022-08-28T04:38:58.559Z,50.94
2022-08-28T04:41:26.963Z,50.89
2022-08-28T04:43:57.169Z,50.95
2022-08-28T04:46:26.703Z,50.93
2022-08-28T04:48:59.571Z,50.88
2022-08-28T04:51:27.374Z,51.15
2022-08-28T04:53:55.242Z,50.87
2022-08-28T04:56:22.943Z,51.07
2022-08-28T04:58:50.768Z,50.89
2022-08-28T05:01:21.356Z,50.94
2022-08-28T05:03:55.410Z,51.11
2022-08-28T05:06:23.178Z,51.10
2022-08-28T05:08:50.963Z,51.07
2022-08-28T05:11:32.923Z,51.20
2022-08-28T05:14:04.210Z,51.23
2022-08-28T05:16:32.266Z,51.22
2022-08-28T05:19:02.413Z,51.09
2022-08-28T05:21:30.150Z,51.27
2022-08-28T05:23:59.161Z,51.26
2022-08-28T05:26:29.906Z,51.42
2022-08-28T05:28:59.415Z,51.42
2022-08-28T05:31:28.775Z,51.29
2022-08-28T05:33:57.272Z,51.48
2022-08-28T05:36:32.645Z,51.52
2022-08-28T05:39:01.283Z,51.32
2022-08-28T05:41:31.510Z,51.57
2022-08-28T05:44:00.095Z,51.53
2022-08-28T05:46:28.406Z,51.65
2022-08-28T05:48:57.529Z,51.58
2022-08-28T05:51:27.703Z,51.58
2022-08-28T05:53:57.542Z,51.71
2022-08-28T05:56:29.601Z,51.63
2022-08-28T05:58:57.865Z,51.73
2022-08-28T06:01:28.620Z,51.70
2022-08-28T06:03:59.023Z,51.59
2022-08-28T06:06:30.313Z,51.66
2022-08-28T06:08:59.333Z,51.51
2022-08-28T06:11:30.589Z,51.79
2022-08-28T06:14:01.532Z,51.68
2022-08-28T06:16:30.321Z,51.70
2022-08-28T06:18:58.693Z,51.74
2022-08-28T06:21:27.788Z,51.75
2022-08-28T06:23:56.065Z,51.79
2022-08-28T06:26:23.957Z,51.70
2022-08-28T06:28:53.093Z,51.79
2022-08-28T06:31:24.696Z,51.75
2022-08-28T06:33:54.581Z,51.71
2022-08-28T06:36:22.379Z,51.91
2022-08-28T06:38:51.800Z,51.91
2022-08-28T06:41:19.775Z,51.86
2022-08-28T06:43:47.493Z,51.75
2022-08-28T06:46:15.310Z,51.61
2022-08-28T06:48:43.246Z,51.82
2022-08-28T06:51:12.508Z,51.80
2022-08-28T06:53:41.685Z,51.77
2022-08-28T06:56:13.790Z,51.74
2022-08-28T06:58:53.658Z,51.63
2022-08-28T07:01:25.571Z,51.59
2022-08-28T07:03:55.679Z,51.70
2022-08-28T07:06:24.801Z,51.65
2022-08-28T07:08:52.562Z,51.51
2022-08-28T07:11:26.152Z,51.63
2022-08-28T07:13:55.237Z,51.54
2022-08-28T07:16:25.591Z,51.52
2022-08-28T07:18:53.390Z,51.54
2022-08-28T07:21:21.473Z,51.53
2022-08-28T07:23:49.688Z,51.38
2022-08-28T07:26:20.267Z,51.56
2022-08-28T07:28:49.413Z,51.27
2022-08-28T07:31:20.173Z,51.32
2022-08-28T07:33:50.009Z,51.43
2022-08-28T07:36:29.890Z,51.26
2022-08-28T07:39:00.014Z,51.50
2022-08-28T07:41:30.220Z,51.32
2022-08-28T07:44:17.255Z,51.48
2022-08-28T07:46:45.078Z,51.36
2022-08-28T07:49:15.525Z,51.50
2022-08-28T07:51:43.292Z,51.61
2022-08-28T07:54:17.868Z,51.44
2022-08-28T07:56:46.723Z,51.45
2022-08-28T07:59:17.408Z,51.44
2022-08-28T08:01:49.284Z,51.56
2022-08-28T08:04:19.895Z,51.54
2022-08-28T08:06:47.753Z,51.55
2022-08-28T08:09:17.803Z,51.50
2022-08-28T08:11:46.103Z,51.70
2022-08-28T08:14:16.946Z,51.55
2022-08-28T08:16:46.243Z,51.61
2022-08-28T08:19:14.959Z,51.60
2022-08-28T08:21:44.342Z,51.55
2022-08-28T08:24:19.677Z,51.42
2022-08-28T08:26:50.841Z,51.30
2022-08-28T08:29:32.275Z,51.47
2022-08-28T08:32:05.087Z,51.41
2022-08-28T08:34:33.646Z,51.27
2022-08-28T08:37:01.545Z,51.13
2022-08-28T08:39:29.469Z,51.09
2022-08-28T08:42:01.671Z,51.34
2022-08-28T08:44:34.524Z,51.21
2022-08-28T08:47:14.618Z,51.12
2022-08-28T08:49:50.793Z,51.04
2022-08-28T08:52:31.028Z,50.98
2022-08-28T08:55:20.055Z,50.97
2022-08-28T08:57:52.070Z,50.89
2022-08-28T09:00:21.596Z,51.07
2022-08-28T09:02:57.159Z,50.87
2022-08-28T09:05:34.558Z,50.81
2022-08-28T09:08:04.571Z,50.68
2022-08-28T09:10:38.747Z,50.59
2022-08-28T09:13:16.659Z,50.79
2022-08-28T09:15:50.527Z,50.71
2022-08-28T09:18:22.338Z,50.57
2022-08-28T09:20:51.224Z,50.59
2022-08-28T09:23:19.502Z,50.47
2022-08-28T09:25:51.772Z,50.50
2022-08-28T09:28:22.753Z,50.27
2022-08-28T09:30:59.348Z,50.54
2022-08-28T09:33:34.709Z,50.22
2022-08-28T09:36:24.856Z,50.23
2022-08-28T09:39:23.697Z,50.30
2022-08-28T09:42:16.596Z,50.34
2022-08-28T09:44:56.523Z,50.41
2022-08-28T09:47:46.024Z,50.29
2022-08-28T09:50:24.858Z,50.12
2022-08-28T09:52:54.717Z,50.24
2022-08-28T09:55:31.616Z,50.24
2022-08-28T09:57:59.630Z,50.33
2022-08-28T10:00:28.827Z,50.13
2022-08-28T10:03:08.751Z,50.08
2022-08-28T10:05:42.547Z,50.11
2022-08-28T10:08:24.837Z,49.88
2022-08-28T10:10:56.800Z,49.98
2022-08-28T10:13:31.015Z,50.16
2022-08-28T10:16:17.957Z,49.91
2022-08-28T10:18:51.578Z,49.73
2022-08-28T10:21:25.445Z,49.69
2022-08-28T10:24:29.092Z,49.63
2022-08-28T10:27:08.702Z,49.67
2022-08-28T10:29:50.515Z,49.50
2022-08-28T10:32:32.427Z,49.34
2022-08-28T10:35:06.955Z,49.28
2022-08-28T10:37:48.946Z,49.05
2022-08-28T10:40:23.759Z,48.89
2022-08-28T10:42:57.800Z,48.86
2022-08-28T10:45:26.994Z,48.93
2022-08-28T10:48:01.314Z,48.96
2022-08-28T10:50:38.347Z,49.02
2022-08-28T10:53:12.552Z,48.80
2022-08-28T10:55:52.911Z,49.14
2022-08-28T10:58:24.869Z,48.63
2022-08-28T11:00:55.208Z,49.04
2022-08-28T11:03:34.803Z,48.88
2022-08-28T11:06:11.516Z,48.68
2022-08-28T11:08:40.714Z,48.54
2022-08-28T11:11:14.870Z,48.59
2022-08-28T11:13:57.138Z,48.33
2022-08-28T11:16:36.514Z,48.09
2022-08-28T11:19:38.727Z,48.13
2022-08-28T11:22:15.803Z,48.34
2022-08-28T11:24:50.495Z,47.82
2022-08-28T11:27:25.477Z,47.42
2022-08-28T11:30:31.218Z,47.21
2022-08-28T11:33:01.860Z,47.00
2022-08-28T11:35:51.756Z,46.85
2022-08-28T11:39:11.431Z,46.58
2022-08-28T11:42:01.535Z,46.24
2022-08-28T11:44:45.824Z,46.50
2022-08-28T11:47:52.213Z,46.71
2022-08-28T11:50:24.015Z,46.31
2022-08-28T11:53:17.859Z,46.47
2022-08-28T11:56:03.340Z,46.51
2022-08-28T11:58:41.957Z,46.14
2022-08-28T12:01:14.216Z,46.12
2022-08-28T12:03:45.212Z,45.97
2022-08-28T12:06:14.383Z,45.80
2022-08-28T12:09:12.293Z,46.01
2022-08-28T12:11:58.431Z,45.96
2022-08-28T12:15:07.445Z,45.83
2022-08-28T12:17:54.400Z,45.40
2022-08-28T12:20:25.065Z,45.19
2022-08-28T12:22:56.837Z,45.00
2022-08-28T12:25:30.651Z,45.09
2022-08-28T12:28:00.970Z,44.48
2022-08-28T12:30:32.137Z,44.76
2022-08-28T12:33:14.603Z,44.85
2022-08-28T12:35:43.896Z,44.92
2022-08-28T12:38:20.106Z,44.88
2022-08-28T12:40:52.840Z,45.33
2022-08-28T12:43:28.679Z,45.47
2022-08-28T12:45:58.773Z,44.47
2022-08-28T12:48:31.537Z,44.27
2022-08-28T12:51:13.658Z,44.47
2022-08-28T12:53:43.835Z,44.17
2022-08-28T12:56:15.552Z,43.99
2022-08-28T12:58:44.447Z,44.14
2022-08-28T13:01:15.943Z,44.27
2022-08-28T13:03:47.747Z,43.69
2022-08-28T13:06:23.103Z,43.78
2022-08-28T13:08:50.909Z,43.96
2022-08-28T13:11:20.162Z,44.28
2022-08-28T13:13:51.054Z,43.76
2022-08-28T13:16:38.265Z,43.45
2022-08-28T13:19:22.775Z,43.46
2022-08-28T13:22:00.276Z,43.13
2022-08-28T13:24:38.769Z,42.63
2022-08-28T13:27:10.257Z,42.34
2022-08-28T13:29:38.994Z,42.16
2022-08-28T13:32:09.187Z,41.75
2022-08-28T13:34:47.810Z,41.88
2022-08-28T13:37:44.056Z,41.97
2022-08-28T13:40:30.188Z,41.79
2022-08-28T13:43:06.944Z,41.86
2022-08-28T13:45:42.613Z,41.49
2022-08-28T13:48:11.879Z,41.94
2022-08-28T13:50:46.680Z,41.41
2022-08-28T13:53:16.596Z,40.46
2022-08-28T13:55:44.321Z,40.87
2022-08-28T13:58:13.839Z,41.30
2022-08-28T14:00:46.069Z,41.47
2022-08-28T14:03:31.338Z,41.01
2022-08-28T14:06:00.508Z,40.77
2022-08-28T14:08:28.199Z,40.90
2022-08-28T14:10:55.942Z,40.92
2022-08-28T14:13:27.452Z,41.09
2022-08-28T14:15:55.643Z,40.62
2022-08-28T14:18:23.971Z,41.07
2022-08-28T14:20:51.676Z,40.79
2022-08-28T14:23:20.710Z,40.78
2022-08-28T14:25:49.118Z,40.61
2022-08-28T14:28:17.815Z,40.53
2022-08-28T14:30:46.507Z,40.38
2022-08-28T14:33:15.345Z,40.84
2022-08-28T14:35:43.344Z,40.56
2022-08-28T14:38:12.032Z,40.42
2022-08-28T14:40:43.118Z,40.58
2022-08-28T14:43:12.190Z,40.39
2022-08-28T14:45:43.757Z,40.36
2022-08-28T14:48:11.632Z,40.59
2022-08-28T14:50:41.011Z,40.19
2022-08-28T14:53:09.676Z,39.71
2022-08-28T14:55:43.894Z,40.00
2022-08-28T14:58:12.382Z,39.43
2022-08-28T15:00:42.363Z,39.40
2022-08-28T15:03:10.831Z,39.49
2022-08-28T15:05:38.775Z,39.68
2022-08-28T15:08:08.496Z,39.33
2022-08-28T15:10:39.064Z,39.10
2022-08-28T15:13:09.976Z,39.59
2022-08-28T15:15:39.319Z,39.13
2022-08-28T15:18:07.342Z,39.46
2022-08-28T15:20:38.857Z,39.25
2022-08-28T15:23:06.742Z,39.16
2022-08-28T15:25:34.526Z,39.30
2022-08-28T15:28:02.257Z,39.31
2022-08-28T15:30:31.367Z,39.32
2022-08-28T15:32:59.180Z,39.76
2022-08-28T15:35:26.887Z,39.81
2022-08-28T15:37:54.595Z,39.47
2022-08-28T15:40:40.235Z,39.80
2022-08-28T15:43:07.971Z,39.49
2022-08-28T15:45:39.200Z,39.57
2022-08-28T15:48:07.954Z,39.75
2022-08-28T15:50:36.233Z,39.72
2022-08-28T15:53:06.172Z,39.69
2022-08-28T15:55:36.518Z,39.79
2022-08-28T15:58:05.322Z,39.75
2022-08-28T16:00:43.419Z,39.36
2022-08-28T16:03:11.143Z,39.32
2022-08-28T16:05:41.095Z,39.63
2022-08-28T16:08:10.927Z,39.64
2022-08-28T16:10:39.037Z,39.47
2022-08-28T16:13:06.943Z,39.45
2022-08-28T16:15:35.294Z,39.40
2022-08-28T16:18:08.798Z,39.22
2022-08-28T16:20:36.755Z,39.28
2022-08-28T16:23:04.505Z,39.36
2022-08-28T16:25:32.245Z,39.53
2022-08-28T16:27:59.911Z,39.57
2022-08-28T16:30:27.613Z,39.34
2022-08-28T16:32:55.389Z,39.61
2022-08-28T16:35:24.622Z,39.52
2022-08-28T16:37:52.337Z,39.51
2022-08-28T16:40:20.361Z,39.30
2022-08-28T16:42:51.619Z,39.69
2022-08-28T16:45:20.058Z,39.81
2022-08-28T16:47:47.803Z,40.05
2022-08-28T16:50:16.125Z,40.25
2022-08-28T16:52:45.165Z,39.79
2022-08-28T16:55:13.423Z,39.87
2022-08-28T16:57:41.139Z,40.13
2022-08-28T17:00:13.584Z,39.64
2022-08-28T17:02:41.869Z,39.72
2022-08-28T17:05:10.062Z,39.50
2022-08-28T17:07:39.733Z,39.95
2022-08-28T17:10:12.080Z,40.45
2022-08-28T17:12:40.263Z,40.30
2022-08-28T17:15:09.273Z,40.27
2022-08-28T17:17:39.598Z,40.31
2022-08-28T17:20:28.876Z,40.70
2022-08-28T17:22:55.662Z,40.49
2022-08-28T17:25:25.293Z,40.67
2022-08-28T17:27:53.561Z,40.47
2022-08-28T17:30:22.014Z,40.51
2022-08-28T17:32:49.740Z,40.17
2022-08-28T17:35:18.446Z,40.45
2022-08-28T17:37:46.688Z,40.54
2022-08-28T17:40:17.248Z,40.60
2022-08-28T17:42:48.113Z,40.48
2022-08-28T17:45:17.283Z,40.42
2022-08-28T17:47:44.958Z,40.13
2022-08-28T17:50:13.413Z,40.47
2022-08-28T17:52:41.244Z,39.94
2022-08-28T17:55:09.926Z,40.07
2022-08-28T17:57:37.916Z,40.30
2022-08-28T18:00:09.983Z,40.84
2022-08-28T18:02:39.314Z,40.43
2022-08-28T18:05:07.934Z,40.12
2022-08-28T18:07:35.718Z,40.80
2022-08-28T18:10:03.448Z,40.18
2022-08-28T18:12:31.353Z,40.39
2022-08-28T18:14:59.059Z,40.14
2022-08-28T18:17:28.615Z,40.48
2022-08-28T18:19:57.364Z,41.03
2022-08-28T18:22:29.486Z,40.74
2022-08-28T18:24:57.588Z,40.72
2022-08-28T18:27:26.551Z,40.88
2022-08-28T18:29:54.324Z,40.52
2022-08-28T18:32:22.020Z,40.59
2022-08-28T18:34:51.092Z,41.09
2022-08-28T18:37:18.892Z,40.99
2022-08-28T18:39:46.583Z,40.50
2022-08-28T18:42:14.732Z,40.88
2022-08-28T18:44:42.407Z,40.95
2022-08-28T18:47:10.128Z,40.78
2022-08-28T18:49:37.772Z,41.04
2022-08-28T18:52:06.847Z,40.51
2022-08-28T18:54:34.557Z,40.72
2022-08-28T18:57:04.314Z,40.83
2022-08-28T18:59:33.712Z,40.81
2022-08-28T19:02:03.519Z,40.90
2022-08-28T19:04:31.989Z,40.80
2022-08-28T19:06:59.746Z,40.80
2022-08-28T19:09:32.267Z,41.23
2022-08-28T19:12:01.023Z,41.03
2022-08-28T19:14:28.724Z,40.73
2022-08-28T19:16:56.759Z,40.82
2022-08-28T19:19:24.950Z,40.65
2022-08-28T19:21:54.538Z,40.44
2022-08-28T19:24:22.507Z,40.57
2022-08-28T19:26:51.704Z,40.67
2022-08-28T19:29:19.389Z,40.70
2022-08-28T19:31:47.554Z,40.81
2022-08-28T19:34:15.297Z,41.08
2022-08-28T19:36:42.981Z,40.68
2022-08-28T19:39:10.685Z,40.75
2022-08-28T19:41:38.367Z,41.11
2022-08-28T19:44:08.225Z,41.26
2022-08-28T19:46:37.637Z,41.48
2022-08-28T19:49:07.459Z,41.21
2022-08-28T19:51:36.818Z,41.28
2022-08-28T19:54:05.119Z,41.27
2022-08-28T19:56:34.917Z,41.42
2022-08-28T19:59:04.245Z,41.61
2022-08-28T20:01:37.099Z,41.73
2022-08-28T20:04:06.359Z,41.68
2022-08-28T20:06:35.644Z,41.82
2022-08-28T20:09:03.990Z,41.98
2022-08-28T20:11:31.759Z,42.10
2022-08-28T20:14:04.103Z,42.16
2022-08-28T20:16:36.337Z,42.34
2022-08-28T20:19:05.095Z,42.36
2022-08-28T20:21:37.691Z,42.66
2022-08-28T20:24:07.415Z,42.74
2022-08-28T20:26:35.326Z,42.81
2022-08-28T20:29:03.267Z,42.85
2022-08-28T20:31:30.967Z,43.06
2022-08-28T20:34:00.065Z,43.00
2022-08-28T20:36:27.914Z,43.02
2022-08-28T20:38:55.634Z,43.24
2022-08-28T20:41:23.732Z,43.12
2022-08-28T20:43:51.642Z,43.28
2022-08-28T20:46:19.716Z,43.38
2022-08-28T20:48:47.546Z,43.22
2022-08-28T20:51:16.613Z,43.37
2022-08-28T20:53:45.462Z,43.33
2022-08-28T20:56:13.370Z,43.49
2022-08-28T20:58:41.097Z,43.39
2022-08-28T21:01:08.893Z,43.58
2022-08-28T21:03:36.633Z,43.45
2022-08-28T21:06:04.406Z,43.64
2022-08-28T21:08:33.458Z,43.64
2022-08-28T21:11:01.143Z,43.62
2022-08-28T21:13:30.062Z,43.77
2022-08-28T21:15:57.774Z,43.71
2022-08-28T21:18:25.446Z,43.81
2022-08-28T21:20:55.459Z,43.93
2022-08-28T21:23:24.251Z,43.89
2022-08-28T21:25:53.310Z,44.00
2022-08-28T21:28:21.026Z,43.99
2022-08-28T21:30:48.754Z,44.08
2022-08-28T21:33:16.719Z,43.99
2022-08-28T21:35:45.555Z,44.26
2022-08-28T21:38:13.439Z,44.25
2022-08-28T21:40:41.479Z,44.35
2022-08-28T21:43:10.538Z,44.33
2022-08-28T21:45:38.253Z,44.27
2022-08-28T21:48:07.011Z,44.55
2022-08-28T21:50:34.835Z,44.45
2022-08-28T21:53:02.473Z,44.45
2022-08-28T21:55:30.154Z,44.60
2022-08-28T21:57:57.837Z,44.71
2022-08-28T22:00:26.880Z,44.66
2022-08-28T22:02:54.633Z,44.66
2022-08-28T22:05:22.542Z,44.76
2022-08-28T22:07:50.243Z,44.70
2022-08-28T22:10:17.968Z,44.78
2022-08-28T22:12:45.653Z,44.80
2022-08-28T22:15:13.377Z,44.77
2022-08-28T22:17:42.405Z,44.95
2022-08-28T22:20:10.794Z,44.96
2022-08-28T22:22:56.252Z,44.87
2022-08-28T22:25:24.248Z,45.00
2022-08-28T22:27:51.918Z,45.10
2022-08-28T22:30:19.963Z,44.99
2022-08-28T22:32:49.057Z,45.05
2022-08-28T22:35:17.114Z,45.23
2022-08-28T22:37:44.781Z,45.35
2022-08-28T22:40:13.866Z,45.29
2022-08-28T22:42:41.927Z,45.48
2022-08-28T22:45:10.263Z,45.46
2022-08-28T22:47:38.061Z,45.58
2022-08-28T22:50:08.502Z,45.42
2022-08-28T22:52:37.165Z,45.48
2022-08-28T22:55:06.737Z,45.63
2022-08-28T22:57:34.471Z,45.63
2022-08-28T23:00:04.087Z,45.67
2022-08-28T23:02:31.808Z,45.64
2022-08-28T23:04:59.487Z,45.70
2022-08-28T23:07:28.581Z,45.81
2022-08-28T23:09:56.319Z,45.81
2022-08-28T23:12:24.071Z,45.76
2022-08-28T23:14:51.997Z,45.88
2022-08-28T23:17:20.174Z,45.92
2022-08-28T23:19:49.173Z,45.91
2022-08-28T23:22:17.881Z,45.79
2022-08-28T23:24:47.357Z,46.13
2022-08-28T23:27:35.351Z,46.18
2022-08-28T23:30:03.730Z,46.03
2022-08-28T23:32:31.434Z,46.17
2022-08-28T23:35:01.876Z,46.29
2022-08-28T23:37:29.604Z,46.36
2022-08-28T23:40:00.779Z,46.34
2022-08-28T23:42:28.625Z,46.47
2022-08-28T23:44:56.880Z,46.62
2022-08-28T23:47:24.598Z,46.49
2022-08-28T23:49:52.303Z,46.60
2022-08-28T23:52:19.980Z,46.70
2022-08-28T23:54:49.909Z,46.72
2022-08-28T23:57:18.975Z,46.82
2022-08-28T23:59:47.255Z,46.82
